Kezdőlap
METAR-TAF:

METAR-TAF

Repülőterek :

Moorhead Municipal Airport

Moorhead, Minnesota, Amerikai Egyesült Államok

földrajzi szélesség: 46-50-21N, földrajzi hosszúság: 096-39-47W, magasság: 280 m

Jelenlegi meteorológiai megfigyelések

A jelentés 28 perccel ezelõtt készült, 18:15 UTC
Dél-délkeleti szél 9 kt
Hőmérséklet 28°C
Páratartalom 70%
Légköri nyomás 1013 hPa
Látótávolság: 16.1 km
Derült ég

METAR: KJKJ 131815Z AUTO 16009KT 10SM CLR 28/22 A2992 RMK AO2

Idő: 13:43 (18:43 UTC)


TAF: hiányzik

Meteorológiai megfigyelések és előrejelzések több, mint 4000 repülőtéren (METAR és TAF jelentéseket).

A térképen piros és sárga pontok jelzik az elérhető meteorológiai állomásokat.

Mozgassa az egeret a pont fölött, hogy megjelenjen az állomás neve.

Azután kattintson az időjárási megfigyelések és előrejelzések megtekintéséhez.

A térkép megváltoztatása: kattintson a fekete keresztel jelölt zöld gombra ráközelítéshez, a vonallal jelölt zöld gombra távolításhoz, vagy a zöld nyilakra a szomszédos térképek eléréséhez.


METAR-TAF: